Time;durP1;ratioP1;P1;durP2;ratioP2;P2;SDS_P1;SDS_P2;PMS_P1;PMS_P2;Temp;Humidity;BMP_temperature;BMP_pressure;BME280_temperature;BME280_humidity;BME280_pressure;Samples;Min_cycle;Max_cycle;Signal;HPM_P1;HPM_P2
2023/09/06 00:01:08;;;;;;;4.10;3.30;;;17.40;99.90;;;;;;5035936;28;20223;-83
2023/09/06 00:03:37;;;;;;;3.40;3.10;;;17.30;99.90;;;;;;5043468;28;20327;-83
2023/09/06 00:06:04;;;;;;;4.55;3.22;;;17.30;99.90;;;;;;5051586;28;20212;-83
2023/09/06 00:08:34;;;;;;;3.92;3.50;;;17.20;99.90;;;;;;5048490;28;20227;-83
2023/09/06 00:11:04;;;;;;;5.75;3.47;;;17.20;99.90;;;;;;5040049;28;20238;-83
2023/09/06 00:13:32;;;;;;;4.10;3.20;;;17.20;99.90;;;;;;5045125;28;20227;-83
2023/09/06 00:15:59;;;;;;;3.70;3.10;;;17.10;99.90;;;;;;5055252;28;20243;-84
2023/09/06 00:18:27;;;;;;;4.75;3.60;;;17.10;99.90;;;;;;5041560;28;20301;-83
2023/09/06 00:20:54;;;;;;;5.13;3.67;;;17.00;99.90;;;;;;5055157;28;20212;-84
2023/09/06 00:23:21;;;;;;;4.47;3.97;;;17.00;99.90;;;;;;5034857;28;20306;-84
2023/09/06 00:25:49;;;;;;;5.00;3.35;;;16.90;99.90;;;;;;5059901;28;20239;-85
2023/09/06 00:28:19;;;;;;;4.40;3.88;;;16.90;99.90;;;;;;5055945;28;20792;-83
2023/09/06 00:30:46;;;;;;;3.95;3.40;;;16.90;99.90;;;;;;5041808;28;20232;-84
2023/09/06 00:33:13;;;;;;;3.58;3.28;;;16.90;99.90;;;;;;5031053;28;20258;-84
2023/09/06 00:35:40;;;;;;;4.05;3.58;;;16.90;99.90;;;;;;5050873;28;20277;-84
2023/09/06 00:38:07;;;;;;;3.78;3.40;;;16.90;99.90;;;;;;5053771;28;20675;-83
2023/09/06 00:40:36;;;;;;;3.92;3.60;;;16.90;99.90;;;;;;5044970;28;20224;-83
2023/09/06 00:43:05;;;;;;;3.53;3.22;;;16.80;99.90;;;;;;5060178;28;20311;-84
2023/09/06 00:45:37;;;;;;;5.10;3.75;;;16.80;99.90;;;;;;5054097;28;20872;-85
2023/09/06 00:48:08;;;;;;;3.42;3.13;;;16.80;99.90;;;;;;5043604;28;20249;-84
2023/09/06 00:50:36;;;;;;;3.58;3.28;;;16.80;99.90;;;;;;5061407;28;20629;-84
2023/09/06 00:53:06;;;;;;;4.17;3.30;;;16.80;99.90;;;;;;5048507;28;20238;-83
2023/09/06 00:55:34;;;;;;;4.28;3.88;;;16.70;99.90;;;;;;5043177;28;21628;-84
2023/09/06 00:58:01;;;;;;;5.30;3.63;;;16.80;99.90;;;;;;5050397;28;20216;-84
2023/09/06 01:00:30;;;;;;;3.85;3.50;;;16.70;99.90;;;;;;5058712;28;20237;-85
2023/09/06 01:02:57;;;;;;;4.05;3.45;;;16.70;99.90;;;;;;5039427;28;20891;-85
2023/09/06 01:05:26;;;;;;;3.28;2.90;;;16.70;99.90;;;;;;5058586;28;20318;-84
2023/09/06 01:07:58;;;;;;;4.13;3.10;;;16.60;99.90;;;;;;5038503;28;20215;-85
2023/09/06 01:10:24;;;;;;;4.53;3.35;;;16.60;99.90;;;;;;5052865;28;20234;-85
2023/09/06 01:12:53;;;;;;;4.10;3.70;;;16.60;99.90;;;;;;5059109;28;20219;-84
2023/09/06 01:15:20;;;;;;;4.27;3.60;;;16.60;99.90;;;;;;5043571;28;20756;-84
2023/09/06 01:17:51;;;;;;;4.60;4.00;;;16.50;99.90;;;;;;5037648;28;20752;-84
2023/09/06 01:20:29;;;;;;;4.60;3.85;;;16.50;99.90;;;;;;5053486;28;20663;-83
2023/09/06 01:23:05;;;;;;;4.43;4.03;;;16.40;99.90;;;;;;5039181;28;20692;-83
2023/09/06 01:25:34;;;;;;;4.23;3.83;;;16.40;99.90;;;;;;5049139;28;20222;-83
2023/09/06 01:28:01;;;;;;;3.63;3.27;;;16.40;99.90;;;;;;5044326;28;20219;-83
2023/09/06 01:30:29;;;;;;;3.93;3.53;;;16.40;99.90;;;;;;5059187;28;20303;-83
2023/09/06 01:32:56;;;;;;;4.10;3.70;;;16.40;99.90;;;;;;5057331;28;20709;-83
2023/09/06 01:35:22;;;;;;;5.87;3.80;;;16.40;99.90;;;;;;5053673;28;20307;-83
2023/09/06 01:37:50;;;;;;;3.90;3.53;;;16.30;99.90;;;;;;5039745;28;20255;-83
2023/09/06 01:40:19;;;;;;;4.28;3.45;;;16.30;99.90;;;;;;5047789;28;20604;-83
2023/09/06 01:42:48;;;;;;;3.97;3.57;;;16.30;99.90;;;;;;5060886;28;20220;-83
2023/09/06 01:45:17;;;;;;;3.90;3.47;;;16.20;99.90;;;;;;5049212;28;20219;-83
2023/09/06 01:47:45;;;;;;;5.15;3.50;;;16.20;99.90;;;;;;5044253;28;20215;-83
2023/09/06 01:50:12;;;;;;;4.10;3.60;;;16.20;99.90;;;;;;5047995;28;20292;-83
2023/09/06 01:52:40;;;;;;;3.93;3.33;;;16.20;99.90;;;;;;5058757;28;20227;-83
2023/09/06 01:55:08;;;;;;;3.27;2.97;;;16.20;99.90;;;;;;5041961;28;20263;-83
2023/09/06 01:57:35;;;;;;;3.45;3.08;;;16.10;99.90;;;;;;5058877;28;20254;-83
2023/09/06 02:00:16;;;;;;;3.65;3.30;;;16.10;99.90;;;;;;5041223;28;20752;-83
2023/09/06 02:02:43;;;;;;;4.17;3.77;;;16.10;99.90;;;;;;5059091;28;20224;-83
2023/09/06 02:05:10;;;;;;;4.57;3.80;;;16.10;99.90;;;;;;5060274;28;20224;-83
2023/09/06 02:07:37;;;;;;;6.03;4.13;;;16.00;99.90;;;;;;5043501;28;20222;-83
2023/09/06 02:10:04;;;;;;;4.28;3.88;;;16.00;99.90;;;;;;5046836;28;20220;-83
2023/09/06 02:12:31;;;;;;;4.60;4.20;;;16.00;99.90;;;;;;5055607;28;20228;-84
2023/09/06 02:14:57;;;;;;;4.20;3.80;;;16.00;99.90;;;;;;5042782;28;20246;-84
2023/09/06 02:17:26;;;;;;;4.00;3.60;;;16.00;99.90;;;;;;5046068;28;20297;-83
2023/09/06 02:19:53;;;;;;;4.10;3.70;;;16.00;99.90;;;;;;5060154;28;20228;-84
2023/09/06 02:22:21;;;;;;;7.40;3.37;;;15.90;99.90;;;;;;5044054;28;20211;-84
2023/09/06 02:24:47;;;;;;;4.83;3.33;;;15.90;99.90;;;;;;5049458;28;20234;-84
2023/09/06 02:27:14;;;;;;;4.33;3.10;;;15.80;99.90;;;;;;5041156;28;20870;-84
2023/09/06 02:29:41;;;;;;;4.38;3.50;;;15.80;99.90;;;;;;5050674;28;20227;-84
2023/09/06 02:32:08;;;;;;;4.83;3.83;;;15.80;99.90;;;;;;5045264;28;20253;-84
2023/09/06 02:34:37;;;;;;;4.73;3.27;;;15.70;99.90;;;;;;5054327;28;20238;-84
2023/09/06 02:37:04;;;;;;;4.43;3.47;;;15.80;99.90;;;;;;5046834;28;20224;-84
2023/09/06 02:39:31;;;;;;;4.97;3.37;;;15.70;99.90;;;;;;5054047;28;20844;-83
2023/09/06 02:41:59;;;;;;;4.43;3.73;;;15.70;99.90;;;;;;5041473;28;20761;-83
2023/09/06 02:44:25;;;;;;;6.20;4.27;;;15.60;99.90;;;;;;5047592;28;20698;-82
2023/09/06 02:46:53;;;;;;;4.13;3.73;;;15.60;99.90;;;;;;5038357;28;20232;-82
2023/09/06 02:49:20;;;;;;;4.03;3.60;;;15.60;99.90;;;;;;5046760;28;20231;-83
2023/09/06 02:51:48;;;;;;;4.73;4.23;;;15.60;99.90;;;;;;5057822;28;20235;-83
2023/09/06 02:54:17;;;;;;;3.83;3.53;;;15.60;99.90;;;;;;5051132;28;20223;-84
2023/09/06 02:56:45;;;;;;;3.60;3.30;;;15.60;99.90;;;;;;5045777;28;20227;-84
2023/09/06 02:59:14;;;;;;;3.90;3.60;;;15.50;99.90;;;;;;5036076;28;20227;-84
2023/09/06 03:01:44;;;;;;;4.97;3.70;;;15.50;99.90;;;;;;5040620;28;20227;-84
2023/09/06 03:04:13;;;;;;;3.63;3.33;;;15.50;99.90;;;;;;5051721;28;20223;-84
2023/09/06 03:06:43;;;;;;;5.07;3.40;;;15.50;99.90;;;;;;5044444;28;20231;-83
2023/09/06 03:09:11;;;;;;;4.60;3.60;;;15.40;99.90;;;;;;5047438;28;20230;-83
2023/09/06 03:11:39;;;;;;;3.53;3.13;;;15.40;99.90;;;;;;5041605;28;20765;-83
2023/09/06 03:14:06;;;;;;;5.57;3.67;;;15.40;99.90;;;;;;5043424;28;20751;-84
2023/09/06 03:16:38;;;;;;;4.17;3.77;;;15.40;99.90;;;;;;5037801;28;20284;-83
2023/09/06 03:19:09;;;;;;;4.27;3.87;;;15.40;99.90;;;;;;5044596;28;20228;-83
2023/09/06 03:21:37;;;;;;;4.27;3.43;;;15.40;99.90;;;;;;5044536;28;20229;-83
2023/09/06 03:24:11;;;;;;;4.20;3.83;;;15.40;99.90;;;;;;5036704;28;20215;-83
2023/09/06 03:26:43;;;;;;;3.93;3.63;;;15.40;99.90;;;;;;5044954;28;20222;-83
2023/09/06 03:29:11;;;;;;;6.50;3.70;;;15.30;99.90;;;;;;5044277;28;20219;-83
2023/09/06 03:31:42;;;;;;;3.60;3.23;;;15.30;99.90;;;;;;5042962;28;20302;-84
2023/09/06 03:34:13;;;;;;;3.50;3.20;;;15.30;99.90;;;;;;5044318;28;20288;-83
2023/09/06 03:36:46;;;;;;;3.10;2.80;;;15.30;99.90;;;;;;5044593;28;20216;-84
2023/09/06 03:39:14;;;;;;;6.63;3.47;;;15.20;99.90;;;;;;5040646;28;20658;-84
2023/09/06 03:41:42;;;;;;;3.63;3.33;;;15.20;99.90;;;;;;5060610;28;20227;-83
2023/09/06 03:44:09;;;;;;;5.80;4.20;;;15.20;99.90;;;;;;5044103;28;20231;-82
2023/09/06 03:46:36;;;;;;;4.07;3.47;;;15.10;99.90;;;;;;5032078;28;20311;-83
2023/09/06 03:49:05;;;;;;;4.20;3.80;;;15.10;99.90;;;;;;5045276;28;20254;-83
2023/09/06 03:51:32;;;;;;;4.37;3.20;;;15.10;99.90;;;;;;5050962;28;20233;-83
2023/09/06 03:54:00;;;;;;;3.80;3.50;;;15.10;99.90;;;;;;5045809;28;20231;-83
2023/09/06 03:56:27;;;;;;;4.07;3.67;;;15.10;99.90;;;;;;5040217;28;20230;-84
2023/09/06 03:58:57;;;;;;;4.97;3.90;;;15.10;99.90;;;;;;5037970;28;20235;-86
2023/09/06 04:01:26;;;;;;;4.20;3.80;;;15.00;99.90;;;;;;5044224;28;20234;-83
2023/09/06 04:03:54;;;;;;;3.60;3.30;;;15.00;99.90;;;;;;5038939;28;20223;-85
2023/09/06 04:06:21;;;;;;;4.13;3.73;;;15.00;99.90;;;;;;5041506;28;20885;-84
2023/09/06 04:08:48;;;;;;;4.10;3.70;;;15.00;99.90;;;;;;5044160;28;20603;-85
2023/09/06 04:11:16;;;;;;;4.73;4.23;;;15.00;99.90;;;;;;5049540;28;20585;-83
2023/09/06 04:13:44;;;;;;;5.90;5.00;;;15.00;99.90;;;;;;5049853;28;20242;-83
2023/09/06 04:16:13;;;;;;;4.77;4.37;;;15.00;99.90;;;;;;5043218;28;20220;-83
2023/09/06 04:18:42;;;;;;;5.87;4.00;;;15.00;99.90;;;;;;5040253;28;20816;-83
2023/09/06 04:21:09;;;;;;;5.03;4.53;;;14.90;99.90;;;;;;5054145;28;20229;-84
2023/09/06 04:23:39;;;;;;;4.73;4.33;;;14.90;99.90;;;;;;5046985;28;20231;-84
2023/09/06 04:26:07;;;;;;;5.20;4.17;;;14.90;99.90;;;;;;5048158;28;20226;-86
2023/09/06 04:28:34;;;;;;;4.33;3.93;;;14.90;99.90;;;;;;5048914;28;20320;-83
2023/09/06 04:31:03;;;;;;;5.00;4.50;;;14.90;99.90;;;;;;5048593;28;20640;-83
2023/09/06 04:33:36;;;;;;;7.00;4.17;;;14.90;99.90;;;;;;5046022;28;20231;-87
2023/09/06 04:36:11;;;;;;;4.87;4.10;;;14.90;99.90;;;;;;5050080;28;20224;-85
2023/09/06 04:38:38;;;;;;;5.93;4.13;;;14.90;99.90;;;;;;5063555;28;20227;-85
2023/09/06 04:41:08;;;;;;;5.83;4.40;;;14.90;99.90;;;;;;5045109;28;20704;-85
2023/09/06 04:43:43;;;;;;;4.80;4.40;;;14.80;99.90;;;;;;5049714;28;20218;-84
2023/09/06 04:46:10;;;;;;;5.03;4.17;;;14.80;99.90;;;;;;5044678;28;20234;-84
2023/09/06 04:48:43;;;;;;;4.33;3.93;;;14.80;99.90;;;;;;5047688;28;20246;-84
2023/09/06 04:51:10;;;;;;;4.53;4.10;;;14.80;99.90;;;;;;5045301;28;20227;-84
2023/09/06 04:53:37;;;;;;;6.57;4.70;;;14.80;99.90;;;;;;5045673;28;20227;-84
2023/09/06 04:56:04;;;;;;;5.37;4.87;;;14.80;99.90;;;;;;5064380;28;20242;-83
2023/09/06 04:58:38;;;;;;;6.70;5.10;;;14.80;99.90;;;;;;5054161;28;20236;-83
2023/09/06 05:01:06;;;;;;;6.43;4.67;;;14.80;99.90;;;;;;5055277;28;20222;-85
2023/09/06 05:03:35;;;;;;;6.87;4.60;;;14.80;99.90;;;;;;5043891;28;20226;-85
2023/09/06 05:06:04;;;;;;;5.47;4.97;;;14.80;99.90;;;;;;5058211;28;20237;-82
2023/09/06 05:08:32;;;;;;;5.27;4.63;;;14.80;99.90;;;;;;5042898;28;20313;-81
2023/09/06 05:11:03;;;;;;;5.13;4.63;;;14.80;99.90;;;;;;5040956;28;20215;-80
2023/09/06 05:13:31;;;;;;;4.77;4.27;;;14.80;99.90;;;;;;5050633;28;20231;-81
2023/09/06 05:16:02;;;;;;;4.20;3.80;;;14.80;99.90;;;;;;5042628;28;20220;-80
2023/09/06 05:18:29;;;;;;;5.70;4.73;;;14.90;99.90;;;;;;5047592;28;20311;-81
2023/09/06 05:20:59;;;;;;;6.47;4.90;;;14.80;99.90;;;;;;5046528;28;20303;-83
2023/09/06 05:23:28;;;;;;;8.60;4.73;;;14.90;99.90;;;;;;5060747;28;20958;-81
2023/09/06 05:25:56;;;;;;;6.40;5.40;;;14.90;99.90;;;;;;5037234;28;20218;-82
2023/09/06 05:28:35;;;;;;;7.73;4.83;;;14.90;99.90;;;;;;5043423;28;20227;-82
2023/09/06 05:31:03;;;;;;;5.57;5.00;;;14.90;99.90;;;;;;5051370;28;20226;-82
2023/09/06 05:33:36;;;;;;;5.07;4.57;;;15.00;99.90;;;;;;5046891;28;21556;-81
2023/09/06 05:36:04;;;;;;;6.03;4.87;;;15.00;99.90;;;;;;5045588;28;20449;-81
2023/09/06 05:38:33;;;;;;;5.53;4.40;;;15.00;99.90;;;;;;5043545;28;20294;-80
2023/09/06 05:41:02;;;;;;;4.80;4.30;;;15.10;99.90;;;;;;5047882;28;20635;-81
2023/09/06 05:43:34;;;;;;;6.20;5.07;;;15.10;99.90;;;;;;5048003;28;20756;-81
2023/09/06 05:46:01;;;;;;;5.67;5.07;;;15.10;99.90;;;;;;5052643;28;20239;-82
2023/09/06 05:48:29;;;;;;;5.40;4.90;;;15.20;99.90;;;;;;5040483;28;20227;-81
2023/09/06 05:50:57;;;;;;;6.40;4.83;;;15.20;99.90;;;;;;5041988;28;20225;-81
2023/09/06 05:53:26;;;;;;;6.00;4.80;;;15.30;99.90;;;;;;5046298;28;20227;-82
2023/09/06 05:55:57;;;;;;;7.73;4.43;;;15.30;99.90;;;;;;5048808;28;20230;-81
2023/09/06 05:58:24;;;;;;;8.13;4.80;;;15.40;99.90;;;;;;5037658;28;20220;-81
2023/09/06 06:00:53;;;;;;;5.67;4.80;;;15.40;99.90;;;;;;5044978;28;20656;-80
2023/09/06 06:03:20;;;;;;;5.17;4.67;;;15.50;99.90;;;;;;5049956;28;20284;-81
2023/09/06 06:05:48;;;;;;;6.60;5.00;;;15.50;99.90;;;;;;5045496;28;20233;-81
2023/09/06 06:08:15;;;;;;;5.17;4.67;;;15.70;99.90;;;;;;5045140;28;20768;-81
2023/09/06 06:10:42;;;;;;;5.00;4.50;;;15.70;99.90;;;;;;5050708;28;20682;-81
2023/09/06 06:13:12;;;;;;;7.63;4.83;;;15.80;99.90;;;;;;5045427;28;20314;-81
2023/09/06 06:15:39;;;;;;;4.97;4.40;;;15.80;99.90;;;;;;5054159;28;20862;-82
2023/09/06 06:18:06;;;;;;;5.70;4.85;;;15.90;99.90;;;;;;5052041;28;20353;-80
2023/09/06 06:20:33;;;;;;;5.38;4.40;;;16.10;99.90;;;;;;5062229;28;20218;-82
2023/09/06 06:22:59;;;;;;;5.43;4.13;;;16.10;99.90;;;;;;5049302;28;20228;-80
2023/09/06 06:25:26;;;;;;;6.47;4.67;;;16.20;99.90;;;;;;5041955;28;20244;-81
2023/09/06 06:27:53;;;;;;;4.72;4.20;;;16.30;99.90;;;;;;5044557;28;20234;-81
2023/09/06 06:30:22;;;;;;;5.40;4.77;;;16.40;99.90;;;;;;5064776;28;20276;-78
2023/09/06 06:32:49;;;;;;;5.43;4.10;;;16.50;99.90;;;;;;5060390;28;20231;-79
2023/09/06 06:35:15;;;;;;;5.28;4.68;;;16.70;99.90;;;;;;5055021;28;20234;-78
2023/09/06 06:37:42;;;;;;;5.28;4.20;;;16.80;99.90;;;;;;5055716;28;20215;-79
2023/09/06 06:40:10;;;;;;;5.75;3.80;;;16.80;99.90;;;;;;5051978;28;20269;-78
2023/09/06 06:42:39;;;;;;;4.50;4.10;;;17.00;99.90;;;;;;5060457;28;20298;-79
2023/09/06 06:45:09;;;;;;;3.88;3.58;;;17.10;99.90;;;;;;5047501;28;20245;-79
2023/09/06 06:47:38;;;;;;;7.10;4.10;;;17.10;99.90;;;;;;5058509;28;20220;-79
2023/09/06 06:50:06;;;;;;;4.28;3.88;;;17.20;99.90;;;;;;5060922;28;20224;-78
2023/09/06 06:52:33;;;;;;;7.72;4.90;;;17.30;99.90;;;;;;5060553;28;20228;-78
2023/09/06 06:55:00;;;;;;;5.45;3.67;;;17.40;99.90;;;;;;5064260;28;20212;-79
2023/09/06 06:57:27;;;;;;;4.30;3.88;;;17.50;99.90;;;;;;5058194;28;20761;-78
2023/09/06 06:59:53;;;;;;;4.55;3.65;;;17.60;99.90;;;;;;5036098;28;20675;-78
2023/09/06 07:02:20;;;;;;;4.82;3.50;;;17.60;99.90;;;;;;5053463;28;20223;-78
2023/09/06 07:04:48;;;;;;;5.32;4.03;;;17.70;99.90;;;;;;5062409;28;20225;-79
2023/09/06 07:07:15;;;;;;;3.60;3.13;;;17.80;99.90;;;;;;5057791;28;20224;-78
2023/09/06 07:09:41;;;;;;;5.72;4.18;;;17.80;99.90;;;;;;5045087;28;20232;-78
2023/09/06 07:12:08;;;;;;;4.45;3.50;;;17.90;99.90;;;;;;5053003;28;20231;-79
2023/09/06 07:14:35;;;;;;;4.57;3.55;;;17.90;99.90;;;;;;5061643;28;20230;-79
2023/09/06 07:17:01;;;;;;;5.38;3.30;;;18.00;99.90;;;;;;5051323;28;20226;-79
2023/09/06 07:19:28;;;;;;;4.97;3.63;;;18.10;99.90;;;;;;5062390;28;20227;-79
2023/09/06 07:21:56;;;;;;;4.03;2.95;;;18.20;99.90;;;;;;5055604;28;20215;-78
2023/09/06 07:24:23;;;;;;;4.60;3.20;;;18.30;99.90;;;;;;5041649;28;20218;-79
2023/09/06 07:26:49;;;;;;;4.40;3.35;;;18.40;99.90;;;;;;5044310;28;20234;-79
2023/09/06 07:29:18;;;;;;;5.78;3.17;;;18.50;99.90;;;;;;5061726;28;20227;-79
2023/09/06 07:31:45;;;;;;;5.43;3.60;;;18.60;99.90;;;;;;5060472;28;20254;-79
2023/09/06 07:34:11;;;;;;;5.60;3.38;;;18.70;99.90;;;;;;5058312;28;20609;-78
2023/09/06 07:36:38;;;;;;;5.95;3.63;;;18.70;99.90;;;;;;5052013;28;20843;-79
2023/09/06 07:39:07;;;;;;;3.95;3.20;;;18.80;99.90;;;;;;5053958;28;20260;-78
2023/09/06 07:41:34;;;;;;;3.75;2.92;;;18.90;99.90;;;;;;5056686;28;20744;-78
2023/09/06 07:44:01;;;;;;;5.40;3.17;;;19.00;99.90;;;;;;5051412;28;20212;-78
2023/09/06 07:46:29;;;;;;;4.57;3.00;;;19.00;99.90;;;;;;5043764;28;20234;-78
2023/09/06 07:48:56;;;;;;;7.03;3.10;;;19.10;99.90;;;;;;5064317;28;20219;-78
2023/09/06 07:51:23;;;;;;;3.92;2.80;;;19.30;99.90;;;;;;5055492;28;20231;-78
2023/09/06 07:53:50;;;;;;;3.97;2.60;;;19.60;99.90;;;;;;5049359;28;20223;-78
2023/09/06 07:56:18;;;;;;;3.35;2.60;;;20.00;99.90;;;;;;5040997;28;20227;-78
2023/09/06 07:58:45;;;;;;;4.15;2.58;;;20.60;99.90;;;;;;5052910;28;20333;-78
2023/09/06 08:01:11;;;;;;;5.85;2.60;;;21.40;99.90;;;;;;5058544;28;20689;-78
2023/09/06 08:03:38;;;;;;;5.65;2.10;;;22.20;99.90;;;;;;5058562;28;20227;-79
2023/09/06 08:06:05;;;;;;;3.65;2.45;;;23.00;99.90;;;;;;5058726;28;20247;-79
2023/09/06 08:08:31;;;;;;;2.45;2.15;;;23.90;99.90;;;;;;5051498;28;20315;-79
2023/09/06 08:10:58;;;;;;;4.15;2.38;;;24.70;99.90;;;;;;5057251;28;20228;-79
2023/09/06 08:13:27;;;;;;;2.40;1.80;;;25.50;99.90;;;;;;5032235;28;20794;-78
2023/09/06 08:15:53;;;;;;;4.80;2.13;;;26.30;99.90;;;;;;5058055;28;20749;-78
2023/09/06 08:18:20;;;;;;;2.28;2.00;;;27.20;99.90;;;;;;5064820;28;20229;-78
2023/09/06 08:20:47;;;;;;;6.50;2.20;;;27.80;99.90;;;;;;5062664;28;20309;-79
2023/09/06 08:23:13;;;;;;;3.30;2.42;;;28.50;99.90;;;;;;5057290;28;20220;-79
2023/09/06 08:25:40;;;;;;;2.15;1.92;;;29.30;99.90;;;;;;5059352;28;20228;-79
2023/09/06 08:28:07;;;;;;;2.22;1.95;;;29.90;99.90;;;;;;5056276;28;20232;-78
2023/09/06 08:30:35;;;;;;;2.15;1.95;;;30.50;99.90;;;;;;5064870;28;20228;-79
2023/09/06 08:33:02;;;;;;;2.00;1.90;;;31.10;98.60;;;;;;5062816;28;20223;-79
2023/09/06 08:35:28;;;;;;;2.50;2.08;;;31.70;98.70;;;;;;5047560;28;20223;-79
2023/09/06 08:37:55;;;;;;;3.75;1.83;;;32.10;97.90;;;;;;5065236;28;20346;-79
2023/09/06 08:40:22;;;;;;;2.83;1.90;;;32.60;97.00;;;;;;5064064;28;20226;-79
2023/09/06 08:42:51;;;;;;;3.83;1.98;;;33.10;95.90;;;;;;5061625;28;20706;-79
2023/09/06 08:45:21;;;;;;;2.05;1.85;;;33.50;94.20;;;;;;5065895;28;20277;-80
2023/09/06 08:47:49;;;;;;;2.83;1.88;;;33.90;92.90;;;;;;5061674;28;20219;-79
2023/09/06 08:50:17;;;;;;;2.90;1.75;;;34.20;92.50;;;;;;5047755;28;20220;-79
2023/09/06 08:52:45;;;;;;;2.60;1.67;;;34.60;91.80;;;;;;5043182;28;20245;-79
2023/09/06 08:55:12;;;;;;;3.20;1.70;;;34.80;90.20;;;;;;5061481;28;20299;-79
2023/09/06 08:57:40;;;;;;;2.05;1.52;;;35.00;89.00;;;;;;5060275;28;20678;-78
2023/09/06 09:00:09;;;;;;;3.85;2.15;;;35.10;85.00;;;;;;5067083;28;20251;-79
2023/09/06 09:02:37;;;;;;;6.18;1.77;;;35.20;86.20;;;;;;5056875;28;20226;-79
2023/09/06 09:05:06;;;;;;;2.10;1.70;;;35.30;87.10;;;;;;5070898;28;20650;-79
2023/09/06 09:07:33;;;;;;;2.00;1.73;;;35.40;84.10;;;;;;5053556;28;20290;-79
2023/09/06 09:10:02;;;;;;;10.20;1.95;;;35.50;84.00;;;;;;5069865;28;20788;-80
2023/09/06 09:12:29;;;;;;;2.05;1.45;;;35.70;83.20;;;;;;5057840;28;20293;-79
2023/09/06 09:14:56;;;;;;;2.00;1.80;;;35.90;81.40;;;;;;5056121;28;20247;-79
2023/09/06 09:17:24;;;;;;;4.43;1.85;;;36.10;79.80;;;;;;5062677;28;20310;-79
2023/09/06 09:19:51;;;;;;;2.55;1.38;;;36.20;77.90;;;;;;5069938;28;20269;-79
2023/09/06 09:22:25;;;;;;;3.10;1.60;;;36.30;75.10;;;;;;5068331;28;20262;-79
2023/09/06 09:24:58;;;;;;;2.50;1.55;;;36.40;74.30;;;;;;5072259;28;20230;-79
2023/09/06 09:27:27;;;;;;;1.92;1.33;;;36.40;67.20;;;;;;5071486;28;20645;-79
2023/09/06 09:29:54;;;;;;;1.33;1.23;;;36.40;67.40;;;;;;5080087;28;20223;-79
2023/09/06 09:32:21;;;;;;;1.90;1.25;;;36.20;67.80;;;;;;5050742;28;20253;-79
2023/09/06 09:34:47;;;;;;;2.30;1.38;;;36.00;66.90;;;;;;5075983;28;20231;-79
2023/09/06 09:37:14;;;;;;;1.75;1.35;;;35.90;65.10;;;;;;5066516;28;20227;-79
2023/09/06 09:39:43;;;;;;;1.63;1.33;;;35.80;67.90;;;;;;5050968;28;20238;-79
2023/09/06 09:42:11;;;;;;;3.33;1.40;;;35.80;68.30;;;;;;5072177;28;20255;-79
2023/09/06 09:44:38;;;;;;;2.83;1.30;;;35.70;63.60;;;;;;5068820;28;20223;-79
2023/09/06 09:47:11;;;;;;;1.80;1.20;;;35.80;63.80;;;;;;5046691;28;20215;-79
2023/09/06 09:49:40;;;;;;;3.05;1.83;;;35.70;63.30;;;;;;5050601;28;20282;-79
2023/09/06 09:52:11;;;;;;;3.10;2.00;;;35.70;64.40;;;;;;5072556;28;20234;-79
2023/09/06 09:54:42;;;;;;;1.92;1.10;;;35.80;65.30;;;;;;5057533;28;20224;-79
2023/09/06 09:57:11;;;;;;;1.63;1.40;;;36.00;65.10;;;;;;5068812;28;20258;-79
2023/09/06 09:59:38;;;;;;;2.55;1.33;;;36.30;65.50;;;;;;5070744;28;20241;-79
2023/09/06 10:02:06;;;;;;;2.22;1.52;;;36.70;64.30;;;;;;5061845;28;20207;-79
2023/09/06 10:04:36;;;;;;;1.45;1.10;;;37.00;62.30;;;;;;5065774;28;20226;-79
2023/09/06 10:07:04;;;;;;;1.20;1.10;;;37.30;60.00;;;;;;5051317;28;20212;-79
2023/09/06 10:09:33;;;;;;;2.53;1.25;;;37.50;61.20;;;;;;5064883;28;20227;-79
2023/09/06 10:12:02;;;;;;;2.13;1.30;;;37.70;60.40;;;;;;5071112;28;20215;-79
2023/09/06 10:14:30;;;;;;;1.58;1.27;;;37.90;58.50;;;;;;5067895;28;20230;-79
2023/09/06 10:16:58;;;;;;;1.20;1.10;;;37.90;58.40;;;;;;5064791;28;20223;-79
2023/09/06 10:19:24;;;;;;;2.55;1.30;;;38.00;58.00;;;;;;5046771;28;20235;-79
2023/09/06 10:21:52;;;;;;;3.33;1.15;;;38.10;58.50;;;;;;5050426;28;20230;-79
2023/09/06 10:24:19;;;;;;;1.80;1.25;;;38.30;58.00;;;;;;5050565;28;20601;-79
2023/09/06 10:26:48;;;;;;;1.30;1.20;;;38.40;57.90;;;;;;5048899;28;20275;-79
2023/09/06 10:29:23;;;;;;;3.53;1.30;;;38.60;56.10;;;;;;5061570;28;20318;-79
2023/09/06 10:31:51;;;;;;;3.08;1.35;;;38.60;54.40;;;;;;5050627;28;20222;-79
2023/09/06 10:34:18;;;;;;;1.95;1.30;;;38.70;55.90;;;;;;5055880;28;20648;-79
2023/09/06 10:36:53;;;;;;;3.60;1.50;;;38.70;55.30;;;;;;5066343;28;20231;-79
2023/09/06 10:39:22;;;;;;;2.63;1.30;;;38.70;54.40;;;;;;5061102;28;20228;-79
2023/09/06 10:42:17;;;;;;;3.00;1.38;;;38.70;54.60;;;;;;5064426;28;20729;-79
2023/09/06 10:45:14;;;;;;;1.88;1.27;;;38.60;54.50;;;;;;5066052;28;20219;-79
2023/09/06 10:47:41;;;;;;;1.83;1.15;;;38.60;54.40;;;;;;5052914;28;20458;-79
2023/09/06 10:50:16;;;;;;;1.65;1.30;;;38.50;55.20;;;;;;5059721;28;20236;-79
2023/09/06 10:52:46;;;;;;;3.78;1.50;;;38.50;54.80;;;;;;5048012;28;20234;-79
2023/09/06 10:55:16;;;;;;;1.65;1.20;;;38.40;53.30;;;;;;5055439;28;20254;-79
2023/09/06 10:57:48;;;;;;;1.60;1.30;;;38.40;53.70;;;;;;5065912;28;20306;-79
2023/09/06 11:00:19;;;;;;;2.35;1.33;;;38.30;53.90;;;;;;5050473;28;20228;-79
2023/09/06 11:03:14;;;;;;;2.00;1.30;;;38.30;53.80;;;;;;5059362;28;20705;-79
2023/09/06 11:05:42;;;;;;;3.47;1.20;;;38.20;54.10;;;;;;5064574;28;20230;-80
2023/09/06 11:08:13;;;;;;;1.27;1.17;;;38.30;52.70;;;;;;5063894;28;20226;-79
2023/09/06 11:10:40;;;;;;;4.07;1.38;;;38.30;53.00;;;;;;5065875;28;20223;-79
2023/09/06 11:13:11;;;;;;;2.55;1.63;;;38.30;53.30;;;;;;5063441;28;20225;-79
2023/09/06 11:15:40;;;;;;;1.50;1.40;;;38.30;51.60;;;;;;5067482;28;20231;-80
2023/09/06 11:18:07;;;;;;;1.90;1.38;;;38.30;52.60;;;;;;5059444;28;20224;-80
2023/09/06 11:20:34;;;;;;;3.17;1.60;;;38.30;53.20;;;;;;5049708;28;20255;-80
2023/09/06 11:23:02;;;;;;;1.15;1.00;;;38.30;52.90;;;;;;5062595;28;20224;-80
2023/09/06 11:25:31;;;;;;;2.38;1.33;;;38.30;52.70;;;;;;5058883;28;20745;-80
2023/09/06 11:28:00;;;;;;;2.47;1.30;;;38.30;51.90;;;;;;5069601;28;20269;-79
2023/09/06 11:30:32;;;;;;;2.78;1.20;;;38.40;52.10;;;;;;5061927;28;20314;-79
2023/09/06 11:33:01;;;;;;;2.72;1.27;;;38.50;51.70;;;;;;5061905;28;20288;-80
2023/09/06 11:35:33;;;;;;;1.70;1.30;;;38.60;51.70;;;;;;5061664;28;20219;-80
2023/09/06 11:38:01;;;;;;;1.20;1.05;;;38.70;51.30;;;;;;5068115;28;20223;-80
2023/09/06 11:40:31;;;;;;;1.67;1.10;;;38.80;51.50;;;;;;5050490;28;20306;-80
2023/09/06 11:43:00;;;;;;;0.90;0.90;;;38.90;51.00;;;;;;5065109;28;20942;-80
2023/09/06 11:45:30;;;;;;;1.10;0.90;;;38.90;51.00;;;;;;5053779;28;20219;-80
2023/09/06 11:47:59;;;;;;;1.80;1.02;;;38.90;49.30;;;;;;5066458;28;20898;-80
2023/09/06 11:50:29;;;;;;;1.15;1.08;;;38.90;49.90;;;;;;5065941;28;20223;-80
2023/09/06 11:52:58;;;;;;;1.60;1.05;;;38.90;49.60;;;;;;5064369;28;20338;-80
2023/09/06 11:55:27;;;;;;;1.67;1.02;;;38.80;48.80;;;;;;5060570;28;20227;-80
2023/09/06 11:57:56;;;;;;;2.58;1.25;;;38.60;47.80;;;;;;5067754;28;20759;-80
2023/09/06 12:00:38;;;;;;;1.50;0.95;;;38.40;47.90;;;;;;5044755;28;20223;-79
2023/09/06 12:03:13;;;;;;;1.98;1.02;;;38.10;47.80;;;;;;5064640;28;20246;-80
2023/09/06 12:05:43;;;;;;;1.42;0.80;;;37.80;48.80;;;;;;5064359;28;20317;-80
2023/09/06 12:08:12;;;;;;;2.15;1.10;;;37.50;48.10;;;;;;5071257;28;20228;-80
2023/09/06 12:10:39;;;;;;;1.20;1.10;;;37.20;48.10;;;;;;5066197;28;20239;-80
2023/09/06 12:13:06;;;;;;;1.50;1.10;;;37.00;49.20;;;;;;5062149;28;20216;-80
2023/09/06 12:15:34;;;;;;;1.02;0.90;;;36.80;49.80;;;;;;5059317;28;20230;-80
2023/09/06 12:18:03;;;;;;;2.15;1.25;;;36.80;50.20;;;;;;5063557;28;20239;-80
2023/09/06 12:20:33;;;;;;;1.40;1.23;;;36.80;50.50;;;;;;5051718;28;20223;-80
2023/09/06 12:23:04;;;;;;;3.15;1.30;;;36.70;49.80;;;;;;5047966;28;20523;-79
2023/09/06 12:25:30;;;;;;;1.95;1.27;;;36.70;49.80;;;;;;5067115;28;20227;-80
2023/09/06 12:27:57;;;;;;;2.55;1.20;;;36.60;50.30;;;;;;5049775;28;20224;-80
2023/09/06 12:30:24;;;;;;;2.00;1.40;;;36.50;50.40;;;;;;5063367;28;20228;-80
2023/09/06 12:32:51;;;;;;;4.57;1.65;;;36.40;51.40;;;;;;5066609;28;20238;-80
2023/09/06 12:35:17;;;;;;;1.90;1.00;;;36.30;51.70;;;;;;5069195;28;20266;-82
2023/09/06 12:37:45;;;;;;;1.13;1.02;;;36.20;50.50;;;;;;5055224;28;20223;-83
2023/09/06 12:40:13;;;;;;;1.42;1.20;;;36.20;51.40;;;;;;5070219;28;20227;-82
2023/09/06 12:42:42;;;;;;;1.67;1.30;;;36.20;51.50;;;;;;5047083;28;20232;-82
2023/09/06 12:45:10;;;;;;;1.48;1.00;;;36.20;51.10;;;;;;5052489;28;20234;-83
2023/09/06 12:47:37;;;;;;;2.67;1.50;;;36.00;51.10;;;;;;5060535;28;20228;-84
2023/09/06 12:50:05;;;;;;;1.20;1.10;;;35.80;51.80;;;;;;5053153;28;20710;-82
2023/09/06 12:52:33;;;;;;;1.52;1.20;;;35.70;52.00;;;;;;5058492;28;20247;-82
2023/09/06 12:54:59;;;;;;;1.20;1.10;;;35.60;52.30;;;;;;5051992;28;20811;-84